Fresno Yosemite International Airport

KFAT · Kalifornien, Vereinigte Staaten

METAR-Geschichte KFAT · Fresno Yosemite International Airport

Unten siehst du die METARs der letzten paar Tage. Wähle ein Jahr, um ältere METARs ab dem Jahr 2007 zu durchsuchen.

12. April 2024

Uhrzeit Code Wetter Temp. Sichtweite Wolkendecke Wind METAR/SPECI
14:53
V
31 °C 10 mi - 210° 210° 13 kt METAR KFAT 122153Z 21013KT 10SM FEW055 FEW075 SCT180 SCT220 31/03 A2970 RMK AO2 PK WND 18031/2127 WSHFT 2123 SLP054 T03060028 $
14:43
V
31 °C 10 mi - 230° 230° 15 - 25 kt METAR KFAT 122143Z 23015G25KT 10SM FEW055 FEW075 SCT180 SCT220 31/04 A2970 RMK AO2 PK WND 18031/2127 WSHFT 2123 T03060039 $
13:53
V
30 °C 10 mi - 170° 170° 14 - 24 kt METAR KFAT 122053Z 17014G24KT 10SM FEW055 FEW100 SCT200 SCT240 30/00 A2970 RMK AO2 SLP053 T03000000 58005 $
12:53
V
29 °C 10 mi - 150° 150° 12 kt METAR KFAT 121953Z 15012KT 10SM FEW060 FEW100 SCT200 SCT240 29/08 A2971 RMK AO2 SLP057 T02890083 $
11:53
V
27 °C 10 mi - 180° 180° 7 - 16 kt METAR KFAT 121853Z 18007G16KT 10SM FEW120 FEW150 SCT200 SCT240 27/09 A2972 RMK AO2 SLP059 T02720089 $
10:53
V
26 °C 10 mi - 140° 140° 9 kt METAR KFAT 121753Z 14009KT 10SM FEW100 FEW120 SCT170 SCT200 26/12 A2972 RMK AO2 SLP059 T02560117 10256 20156 53006 $
09:53
V
23 °C 10 mi - 150° 150° 7 kt METAR KFAT 121653Z 15007KT 10SM FEW100 FEW120 SCT200 23/12 A2970 RMK AO2 SLP055 T02330117 $
08:53
V
21 °C 10 mi - 120° 120° 10 kt METAR KFAT 121553Z 12010KT 10SM FEW100 FEW150 FEW180 21/11 A2970 RMK AO2 SLP053 T02060106 $
07:53
V
17 °C 10 mi - 150° 150° 4 kt METAR KFAT 121453Z 15004KT 10SM FEW100 FEW250 17/11 A2970 RMK AO2 SLP053 T01720106 55003 $
06:53
V
16 °C 10 mi - 140° 140° 3 kt METAR KFAT 121353Z 14003KT 10SM FEW100 FEW250 16/10 A2969 RMK AO2 SLP051 T01610100 $
05:53
V
16 °C 10 mi - 360° 360° 0 kt METAR KFAT 121253Z 00000KT 10SM FEW100 SCT250 16/11 A2970 RMK AO2 SLP052 T01610106 $
04:53
V
16 °C 10 mi 25.000 ft 030° 030° 4 kt METAR KFAT 121153Z 03004KT 10SM FEW200 BKN250 16/10 A2971 RMK AO2 SLP056 T01610100 10211 20161 56018 $
03:53
V
17 °C 10 mi 25.000 ft 080° 080° 7 kt METAR KFAT 121053Z 08007KT 10SM FEW200 BKN250 17/11 A2972 RMK AO2 SLP062 T01720106 $
02:53
V
18 °C 10 mi 25.000 ft 080° 080° 5 kt METAR KFAT 120953Z 08005KT 10SM SCT200 BKN250 18/12 A2974 RMK AO2 SLP067 T01780117 $
01:53
V
18 °C 10 mi 25.000 ft 360° 360° 0 kt METAR KFAT 120853Z 00000KT 10SM SCT200 BKN250 18/12 A2976 RMK AO2 SLP074 T01780122 58002 $
00:53
V
19 °C 10 mi - 360° 360° 0 kt METAR KFAT 120753Z 00000KT 10SM SCT250 19/13 A2977 RMK AO2 SLP077 T01890128 403060133 $

11. April 2024

Uhrzeit Code Wetter Temp. Sichtweite Wolkendecke Wind METAR/SPECI
23:53
V
20 °C 10 mi 25.000 ft 360° 360° 0 kt METAR KFAT 120653Z 00000KT 10SM FEW200 BKN250 20/13 A2977 RMK AO2 SLP078 T02000128 $
22:53
V
21 °C 10 mi - 360° 360° 0 kt METAR KFAT 120553Z 00000KT 10SM CLR 21/13 A2977 RMK AO2 SLP076 T02060133 10306 20206 50004 $
21:53
V
24 °C 10 mi - 360° 360° 0 kt METAR KFAT 120453Z 00000KT 10SM CLR 24/13 A2977 RMK AO2 SLP077 T02390133 $
20:53
V
24 °C 10 mi - 360° 360° 0 kt METAR KFAT 120353Z 00000KT 10SM CLR 24/14 A2976 RMK AO2 SLP075 T02440144 $
19:53
V
27 °C 10 mi - 360° 360° 0 kt METAR KFAT 120253Z 00000KT 10SM FEW080 FEW180 27/11 A2975 RMK AO2 SLP072 TCU DSNT NE T02720111 56013 $
18:53
V
28 °C 10 mi - 310° 310° 7 kt METAR KFAT 120153Z 31007KT 10SM FEW040 FEW080 FEW200 28/10 A2976 RMK AO2 SLP073 TCU DSNT NE SE T02830100
17:53
V
29 °C 10 mi - 310° 310° 7 kt METAR KFAT 120053Z 31007KT 10SM FEW040 FEW080 SCT200 29/11 A2977 RMK AO2 SLP079 TCU DSNT NE SE T02940106
16:53
V
29 °C 10 mi - Var Var 4 kt METAR KFAT 112353Z VRB04KT 10SM FEW040 FEW080 SCT200 29/09 A2979 RMK AO2 SLP085 TCU DSNT N-NE SE T02940089 10300 20228 56030
15:53
V
30 °C 10 mi - 360° 360° 0 kt METAR KFAT 112253Z 00000KT 10SM FEW040 SCT100 SCT200 30/09 A2982 RMK AO2 SLP094 TCU DSNT N SE T03000094
14:53
V
29 °C 10 mi - Var Var 4 kt METAR KFAT 112153Z VRB04KT 10SM FEW060 FEW100 SCT200 SCT240 29/10 A2985 RMK AO2 SLP105 T02940100
13:53
V
28 °C 10 mi - 330° 330° 3 kt METAR KFAT 112053Z 33003KT 10SM FEW070 FEW100 SCT200 SCT250 28/11 A2988 RMK AO2 SLP115 T02780111 58027
12:53
V
27 °C 10 mi - Var Var 5 kt METAR KFAT 111953Z VRB05KT 10SM FEW100 SCT200 SCT250 27/11 A2991 RMK AO2 SLP126 T02670106
11:53
V
25 °C 10 mi 25.000 ft 090° 090° 3 kt METAR KFAT 111853Z 09003KT 10SM FEW070 FEW100 SCT200 BKN250 25/12 A2994 RMK AO2 SLP135 T02500117
10:53
V
23 °C 10 mi - 360° 360° 0 kt METAR KFAT 111753Z 00000KT 10SM SCT200 SCT250 23/12 A2996 RMK AO2 SLP143 T02280122 10228 20133 58007
09:53
V
21 °C 10 mi - 130° 130° 5 kt METAR KFAT 111653Z 13005KT 10SM SCT200 SCT250 21/12 A2997 RMK AO2 SLP148 T02060122
08:53
V
18 °C 10 mi - 130° 130° 5 kt METAR KFAT 111553Z 13005KT 10SM SCT200 SCT250 18/11 A2999 RMK AO2 SLP152 T01830111
07:53
V
16 °C 10 mi - 360° 360° 0 kt METAR KFAT 111453Z 00000KT 10SM SCT200 16/10 A2998 RMK AO2 SLP151 T01560100 55000
06:53
V
13 °C 10 mi - 360° 360° 0 kt METAR KFAT 111353Z 00000KT 10SM SCT200 13/10 A2998 RMK AO2 SLP149 T01330100
05:53
V
14 °C 10 mi - 360° 360° 0 kt METAR KFAT 111253Z 00000KT 10SM SCT200 14/11 A2998 RMK AO2 SLP148 T01390106
04:53
V
14 °C 10 mi - 100° 100° 3 kt METAR KFAT 111153Z 10003KT 10SM FEW200 14/11 A2998 RMK AO2 SLP151 T01440106 10189 20139 58005
03:53
V
14 °C 10 mi - 090° 090° 3 kt METAR KFAT 111053Z 09003KT 10SM FEW200 14/11 A2999 RMK AO2 SLP153 T01440111
02:53
V
16 °C 10 mi - 360° 360° 0 kt METAR KFAT 110953Z 00000KT 10SM FEW200 16/12 A2999 RMK AO2 SLP154 T01560117
01:53
V
16 °C 10 mi - 360° 360° 0 kt METAR KFAT 110853Z 00000KT 10SM FEW200 16/12 A3000 RMK AO2 SLP156 T01610117 58006
00:53
V
17 °C 10 mi - 360° 360° 0 kt METAR KFAT 110753Z 00000KT 10SM FEW200 17/12 A3001 RMK AO2 SLP159 T01720117 402780111

10. April 2024

Uhrzeit Code Wetter Temp. Sichtweite Wolkendecke Wind METAR/SPECI
23:53
V
18 °C 10 mi - 360° 360° 0 kt METAR KFAT 110653Z 00000KT 10SM FEW200 18/12 A3001 RMK AO2 SLP161 T01780122
22:53
V
19 °C 10 mi - 360° 360° 0 kt METAR KFAT 110553Z 00000KT 10SM CLR 19/13 A3002 RMK AO2 SLP162 T01890128 10278 20189 51007
21:53
V
21 °C 10 mi - 360° 360° 0 kt METAR KFAT 110453Z 00000KT 10SM CLR 21/13 A3002 RMK AO2 SLP162 T02060128
20:53
V
22 °C 10 mi - 320° 320° 4 kt METAR KFAT 110353Z 32004KT 10SM FEW200 22/13 A3001 RMK AO2 SLP160 T02170128
19:53
V
23 °C 10 mi 20.000 ft 330° 330° 6 kt METAR KFAT 110253Z 33006KT 10SM SCT150 BKN200 23/12 A3000 RMK AO2 SLP155 T02280117 55005
18:53
V
24 °C 10 mi 20.000 ft 340° 340° 9 kt METAR KFAT 110153Z 34009KT 10SM FEW060 SCT150 BKN200 24/12 A2999 RMK AO2 SLP154 T02440117
17:53
V
26 °C 10 mi 20.000 ft 350° 350° 10 kt METAR KFAT 110053Z 35010KT 10SM FEW070 SCT150 BKN200 26/11 A3000 RMK AO2 SLP157 T02610111
16:53
V
28 °C 10 mi 20.000 ft 320° 320° 7 kt METAR KFAT 102353Z 32007KT 10SM FEW070 SCT150 BKN200 28/09 A3001 RMK AO2 SLP160 T02780094 10278 20211 58022
15:53
V
27 °C 10 mi 20.000 ft 320° 320° 7 kt METAR KFAT 102253Z 32007KT 10SM SCT150 BKN200 27/07 A3003 RMK AO2 SLP167 T02720072
14:53
V
27 °C 10 mi - 310° 310° 8 kt METAR KFAT 102153Z 31008KT 10SM SCT100 SCT150 27/08 A3006 RMK AO2 SLP176 T02670078
13:53
V
26 °C 10 mi - 310° 310° 5 kt METAR KFAT 102053Z 31005KT 10SM FEW100 FEW200 SCT250 26/08 A3008 RMK AO2 SLP183 T02610078 58018
12:53
V
24 °C 10 mi 20.000 ft 360° 360° 0 kt METAR KFAT 101953Z 00000KT 10SM FEW100 SCT150 BKN200 24/07 A3010 RMK AO2 SLP190 T02440072
11:53
V
24 °C 10 mi - Var Var 3 kt METAR KFAT 101853Z VRB03KT 10SM FEW150 SCT200 SCT250 24/08 A3012 RMK AO2 SLP197 T02390078
10:53
V
21 °C 10 mi - 130° 130° 3 kt METAR KFAT 101753Z 13003KT 10SM FEW150 FEW200 SCT250 21/08 A3013 RMK AO2 SLP201 T02110083 10211 20111 51002
09:53
V
19 °C 10 mi - 120° 120° 4 kt METAR KFAT 101653Z 12004KT 10SM FEW150 FEW200 19/08 A3013 RMK AO2 SLP201 T01890083
08:53
V
16 °C 10 mi - 140° 140° 3 kt METAR KFAT 101553Z 14003KT 10SM FEW150 FEW200 16/08 A3013 RMK AO2 SLP202 T01560083
07:53
V
14 °C 10 mi - 360° 360° 0 kt METAR KFAT 101453Z 00000KT 10SM FEW150 14/08 A3013 RMK AO2 SLP199 T01390078 53005
06:53
V
11 °C 10 mi - 140° 140° 3 kt METAR KFAT 101353Z 14003KT 10SM FEW150 FEW200 11/07 A3011 RMK AO2 SLP195 T01110072
05:53
V
12 °C 10 mi - 070° 070° 3 kt METAR KFAT 101253Z 07003KT 10SM FEW200 12/08 A3011 RMK AO2 SLP193 T01170078
04:53
V
12 °C 10 mi - 070° 070° 4 kt METAR KFAT 101153Z 07004KT 10SM CLR 12/07 A3011 RMK AO2 SLP194 T01220072 10172 20117 58003
03:53
V
13 °C 10 mi - 360° 360° 0 kt METAR KFAT 101053Z 00000KT 10SM CLR 13/07 A3012 RMK AO2 SLP197 T01280072
02:53
V
14 °C 10 mi - 360° 360° 0 kt METAR KFAT 100953Z 00000KT 10SM CLR 14/08 A3012 RMK AO2 SLP197 T01390078
01:53
V
14 °C 10 mi - 360° 360° 0 kt METAR KFAT 100853Z 00000KT 10SM CLR 14/07 A3012 RMK AO2 SLP197 T01390072 56004
00:53
V
14 °C 10 mi - 070° 070° 3 kt METAR KFAT 100753Z 07003KT 10SM CLR 14/07 A3012 RMK AO2 SLP198 T01440072 402500094

9. April 2024

Uhrzeit Code Wetter Temp. Sichtweite Wolkendecke Wind METAR/SPECI
23:53
V
16 °C 10 mi - 360° 360° 0 kt METAR KFAT 100653Z 00000KT 10SM CLR 16/08 A3013 RMK AO2 SLP199 T01610083
22:53
V
17 °C 10 mi - 360° 360° 0 kt METAR KFAT 100553Z 00000KT 10SM CLR 17/08 A3013 RMK AO2 SLP201 T01670083 10250 20167 50011
Eine Änderung melden